createdAt,value
2018-06-12T00:02:26.317Z,10.73
2018-06-12T00:04:56.034Z,10.43
2018-06-12T00:07:25.746Z,11.30
2018-06-12T00:09:55.557Z,10.80
2018-06-12T00:12:25.256Z,10.60
2018-06-12T00:14:54.966Z,11.10
2018-06-12T00:17:24.633Z,10.47
2018-06-12T00:19:54.322Z,11.43
2018-06-12T00:22:24.034Z,10.93
2018-06-12T00:24:53.863Z,11.43
2018-06-12T00:27:23.577Z,11.77
2018-06-12T00:29:53.337Z,11.97
2018-06-12T00:32:23.362Z,12.37
2018-06-12T00:34:53.017Z,13.03
2018-06-12T00:37:22.751Z,14.13
2018-06-12T00:39:52.383Z,14.17
2018-06-12T00:42:22.072Z,14.00
2018-06-12T00:44:51.828Z,13.73
2018-06-12T00:47:21.576Z,13.40
2018-06-12T00:49:51.333Z,14.33
2018-06-12T00:52:21.070Z,13.77
2018-06-12T00:54:50.720Z,14.87
2018-06-12T00:57:20.435Z,14.57
2018-06-12T00:59:50.120Z,14.73
2018-06-12T01:02:19.808Z,13.63
2018-06-12T01:04:49.528Z,13.87
2018-06-12T01:07:19.149Z,13.33
2018-06-12T01:09:48.888Z,12.53
2018-06-12T01:12:18.589Z,13.07
2018-06-12T01:14:48.254Z,13.07
2018-06-12T01:17:18.056Z,12.50
2018-06-12T01:19:47.733Z,13.37
2018-06-12T01:22:17.417Z,13.47
2018-06-12T01:24:47.153Z,13.77
2018-06-12T01:27:16.915Z,15.57
2018-06-12T01:29:46.639Z,16.53
2018-06-12T01:32:16.403Z,14.33
2018-06-12T01:34:46.063Z,15.37
2018-06-12T01:37:15.813Z,14.13
2018-06-12T01:39:45.498Z,14.63
2018-06-12T01:42:15.221Z,13.93
2018-06-12T01:44:44.845Z,14.00
2018-06-12T01:47:14.505Z,15.30
2018-06-12T01:49:44.211Z,14.40
2018-06-12T01:52:13.904Z,13.40
2018-06-12T01:54:43.568Z,13.80
2018-06-12T01:57:13.230Z,13.57
2018-06-12T01:59:42.903Z,14.40
2018-06-12T02:02:12.770Z,13.33
2018-06-12T02:04:42.476Z,13.60
2018-06-12T02:07:12.083Z,13.80
2018-06-12T02:09:41.781Z,12.63
2018-06-12T02:12:11.502Z,12.73
2018-06-12T02:14:41.240Z,12.70
2018-06-12T02:17:10.963Z,13.67
2018-06-12T02:19:40.689Z,12.90
2018-06-12T02:22:10.423Z,13.23
2018-06-12T02:24:40.077Z,14.43
2018-06-12T02:27:09.786Z,16.33
2018-06-12T02:29:39.457Z,16.33
2018-06-12T02:32:09.142Z,18.60
2018-06-12T02:34:38.765Z,18.13
2018-06-12T02:37:08.533Z,21.20
2018-06-12T02:39:38.234Z,21.20
2018-06-12T02:42:07.907Z,22.23
2018-06-12T02:44:37.698Z,21.30
2018-06-12T02:47:07.326Z,20.93
2018-06-12T02:49:37.032Z,19.30
2018-06-12T02:52:06.805Z,18.20
2018-06-12T02:54:36.556Z,15.97
2018-06-12T02:57:06.312Z,15.27
2018-06-12T02:59:35.994Z,14.67
2018-06-12T03:02:05.828Z,12.93
2018-06-12T03:04:35.656Z,12.43
2018-06-12T03:07:05.368Z,12.17
2018-06-12T03:09:38.006Z,11.67
2018-06-12T03:12:07.657Z,11.10
2018-06-12T03:14:37.366Z,10.20
2018-06-12T03:17:07.017Z,10.53
2018-06-12T03:19:36.654Z,10.03
2018-06-12T03:22:07.049Z,10.57
2018-06-12T03:24:37.436Z,10.53
2018-06-12T03:27:07.149Z,10.73
2018-06-12T03:29:37.324Z,10.73
2018-06-12T03:32:07.013Z,11.47
2018-06-12T03:34:36.806Z,11.13
2018-06-12T03:37:06.428Z,11.27
2018-06-12T03:39:36.122Z,11.63
2018-06-12T03:42:05.857Z,11.67
2018-06-12T03:44:35.498Z,11.53
2018-06-12T03:47:05.588Z,11.27
2018-06-12T03:49:35.280Z,10.37
2018-06-12T03:52:05.280Z,10.67
2018-06-12T03:54:34.925Z,11.47
2018-06-12T03:57:04.661Z,11.40
2018-06-12T03:59:34.365Z,11.43
2018-06-12T04:02:04.183Z,11.43
2018-06-12T04:04:33.868Z,11.13
2018-06-12T04:07:03.756Z,11.77
2018-06-12T04:09:33.573Z,11.97
2018-06-12T04:12:03.478Z,10.70
2018-06-12T04:14:33.174Z,11.53
2018-06-12T04:17:02.850Z,12.63
2018-06-12T04:19:32.521Z,12.60
2018-06-12T04:22:02.181Z,12.13
2018-06-12T04:24:31.832Z,12.80
2018-06-12T04:27:01.500Z,12.13
2018-06-12T04:29:31.250Z,14.13
2018-06-12T04:32:00.974Z,13.60
2018-06-12T04:34:30.714Z,12.87
2018-06-12T04:37:00.361Z,12.07
2018-06-12T04:39:29.972Z,12.77
2018-06-12T04:41:59.631Z,11.90
2018-06-12T04:44:29.354Z,11.73
2018-06-12T04:46:58.996Z,11.00
2018-06-12T04:49:28.678Z,11.77
2018-06-12T04:51:58.470Z,12.23
2018-06-12T04:54:28.241Z,11.83
2018-06-12T04:56:57.990Z,11.87
2018-06-12T04:59:27.713Z,11.33
2018-06-12T05:01:57.915Z,12.20
2018-06-12T05:04:27.658Z,13.33
2018-06-12T05:06:57.344Z,12.50
2018-06-12T05:09:27.018Z,12.60
2018-06-12T05:11:56.800Z,12.67
2018-06-12T05:14:26.490Z,12.97
2018-06-12T05:16:56.134Z,12.77
2018-06-12T05:19:25.779Z,13.13
2018-06-12T05:21:55.429Z,13.03
2018-06-12T05:24:25.135Z,13.03
2018-06-12T05:26:54.879Z,13.93
2018-06-12T05:29:24.649Z,14.40
2018-06-12T05:31:54.282Z,14.73
2018-06-12T05:34:24.026Z,15.37
2018-06-12T05:36:53.745Z,14.67
2018-06-12T05:39:23.448Z,14.90
2018-06-12T05:41:53.171Z,14.13
2018-06-12T05:44:23.657Z,15.43
2018-06-12T05:46:53.384Z,15.17
2018-06-12T05:49:23.078Z,16.93
2018-06-12T05:51:52.821Z,15.73
2018-06-12T05:54:22.631Z,16.10
2018-06-12T05:56:52.393Z,15.73
2018-06-12T05:59:22.020Z,15.50
2018-06-12T06:01:51.734Z,16.07
2018-06-12T06:04:21.532Z,15.30
2018-06-12T06:06:51.234Z,16.50
2018-06-12T06:09:20.948Z,18.10
2018-06-12T06:11:50.610Z,18.67
2018-06-12T06:14:20.367Z,16.60
2018-06-12T06:16:50.076Z,16.50
2018-06-12T06:19:19.738Z,15.57
2018-06-12T06:21:49.446Z,16.30
2018-06-12T06:24:19.218Z,15.70
2018-06-12T06:26:48.964Z,15.70
2018-06-12T06:29:18.655Z,14.50
2018-06-12T06:31:48.385Z,13.10
2018-06-12T06:34:18.189Z,14.77
2018-06-12T06:36:47.916Z,15.33
2018-06-12T06:39:17.607Z,14.03
2018-06-12T06:41:47.365Z,16.40
2018-06-12T06:44:17.093Z,15.90
2018-06-12T06:46:46.740Z,15.97
2018-06-12T06:49:16.354Z,15.87
2018-06-12T06:51:46.042Z,16.42
2018-06-12T06:54:15.693Z,16.87
2018-06-12T06:56:45.378Z,15.97
2018-06-12T06:59:15.043Z,15.63
2018-06-12T07:01:44.826Z,14.93
2018-06-12T07:04:14.457Z,14.70
2018-06-12T07:06:44.172Z,13.77
2018-06-12T07:09:13.906Z,14.43
2018-06-12T07:11:43.575Z,14.55
2018-06-12T07:14:13.304Z,13.30
2018-06-12T07:16:43.037Z,13.27
2018-06-12T07:19:12.735Z,14.20
2018-06-12T07:21:42.499Z,14.73
2018-06-12T07:24:12.369Z,13.87
2018-06-12T07:26:42.269Z,14.30
2018-06-12T07:29:12.179Z,15.23
2018-06-12T07:31:42.008Z,15.27
2018-06-12T07:34:11.810Z,14.67
2018-06-12T07:36:41.601Z,15.67
2018-06-12T07:39:11.399Z,15.83
2018-06-12T07:41:41.208Z,17.20
2018-06-12T07:44:11.071Z,16.60
2018-06-12T07:46:40.827Z,19.03
2018-06-12T07:49:10.624Z,17.17
2018-06-12T07:51:40.509Z,18.53
2018-06-12T07:54:10.400Z,18.77
2018-06-12T07:56:40.285Z,17.70
2018-06-12T07:59:10.081Z,19.70
2018-06-12T08:01:39.931Z,18.53
2018-06-12T08:04:09.763Z,18.90
2018-06-12T08:06:39.589Z,19.13
2018-06-12T08:09:09.564Z,18.42
2018-06-12T08:11:39.357Z,19.67
2018-06-12T08:14:09.154Z,19.67
2018-06-12T08:16:39.004Z,20.47
2018-06-12T08:19:08.808Z,20.60
2018-06-12T08:21:38.664Z,19.37
2018-06-12T08:24:08.492Z,20.43
2018-06-12T08:26:37.613Z,19.93
2018-06-12T08:30:10.731Z,17.17
2018-06-12T08:32:40.510Z,18.87
2018-06-12T08:35:10.591Z,16.63
2018-06-12T08:37:40.429Z,18.27
2018-06-12T08:40:10.424Z,18.47
2018-06-12T08:42:40.381Z,20.20
2018-06-12T08:45:10.240Z,17.10
2018-06-12T08:47:40.037Z,17.43
2018-06-12T08:50:09.834Z,16.67
2018-06-12T08:52:39.704Z,16.83
2018-06-12T08:55:09.624Z,17.37
2018-06-12T08:57:39.429Z,18.83
2018-06-12T09:00:09.236Z,18.77
2018-06-12T09:02:39.157Z,17.07
2018-06-12T09:05:09.004Z,16.07
2018-06-12T09:07:38.954Z,15.68
2018-06-12T09:10:08.765Z,14.87
2018-06-12T09:12:38.584Z,13.97
2018-06-12T09:15:08.553Z,14.00
2018-06-12T09:17:38.317Z,13.17
2018-06-12T09:20:08.121Z,14.93
2018-06-12T09:22:37.936Z,16.73
2018-06-12T09:25:07.744Z,14.57
2018-06-12T09:27:43.498Z,15.63
2018-06-12T09:30:13.301Z,15.10
2018-06-12T09:32:43.123Z,11.60
2018-06-12T09:35:12.989Z,10.20
2018-06-12T09:37:42.804Z,11.47
2018-06-12T09:40:12.687Z,11.07
2018-06-12T09:42:42.528Z,13.20
2018-06-12T09:45:12.349Z,13.97
2018-06-12T09:47:42.181Z,13.27
2018-06-12T09:50:12.013Z,13.47
2018-06-12T09:52:41.882Z,12.43
2018-06-12T09:55:11.690Z,12.50
2018-06-12T09:57:41.564Z,12.97
2018-06-12T10:00:11.355Z,11.97
2018-06-12T10:02:41.195Z,11.90
2018-06-12T10:05:11.090Z,10.68
2018-06-12T10:07:41.011Z,10.60
2018-06-12T10:10:10.822Z,11.20
2018-06-12T10:12:40.643Z,10.90
2018-06-12T10:15:10.623Z,10.78
2018-06-12T10:17:40.414Z,10.88
2018-06-12T10:20:09.657Z,10.50
2018-06-12T10:22:39.495Z,10.03
2018-06-12T10:25:09.292Z,10.18
2018-06-12T10:27:39.214Z,10.70
2018-06-12T10:30:09.064Z,11.88
2018-06-12T10:32:38.906Z,10.63
2018-06-12T10:35:08.763Z,10.30
2018-06-12T10:37:38.580Z,10.97
2018-06-12T10:40:08.365Z,10.13
2018-06-12T10:42:38.143Z,10.70
2018-06-12T10:45:08.008Z,12.33
2018-06-12T10:47:37.805Z,11.13
2018-06-12T10:50:08.001Z,12.57
2018-06-12T10:52:37.849Z,12.40
2018-06-12T10:55:07.788Z,13.07
2018-06-12T10:57:37.700Z,12.87
2018-06-12T11:00:07.575Z,12.53
2018-06-12T11:02:37.439Z,13.10
2018-06-12T11:05:07.196Z,16.07
2018-06-12T11:07:37.040Z,14.37
2018-06-12T11:10:06.812Z,14.30
2018-06-12T11:12:38.968Z,17.43
2018-06-12T11:15:09.476Z,18.80
2018-06-12T11:17:39.300Z,17.87
2018-06-12T11:20:09.824Z,6.03
2018-06-12T11:22:39.598Z,5.40
2018-06-12T11:25:09.460Z,4.87
2018-06-12T11:27:40.591Z,5.03
2018-06-12T11:30:10.375Z,5.67
2018-06-12T11:32:40.524Z,6.67
2018-06-12T11:35:10.281Z,5.73
2018-06-12T11:37:40.146Z,5.83
2018-06-12T11:40:11.218Z,5.93
2018-06-12T11:42:44.182Z,6.63
2018-06-12T11:45:14.510Z,6.77
2018-06-12T11:47:44.317Z,4.73
2018-06-12T11:50:14.177Z,5.00
2018-06-12T11:52:44.198Z,4.23
2018-06-12T11:55:14.850Z,4.43
2018-06-12T11:57:45.749Z,5.03
2018-06-12T12:00:16.529Z,5.07
2018-06-12T12:02:46.340Z,4.70
2018-06-12T12:05:17.916Z,4.47
2018-06-12T12:07:49.128Z,4.33
2018-06-12T12:10:18.924Z,5.00
2018-06-12T12:12:48.762Z,5.07
2018-06-12T12:15:18.512Z,4.97
2018-06-12T12:17:48.313Z,4.30
2018-06-12T12:20:18.174Z,5.30
2018-06-12T12:22:47.958Z,4.60
2018-06-12T12:25:17.729Z,3.60
2018-06-12T12:27:47.522Z,4.13
2018-06-12T12:30:17.376Z,3.70
2018-06-12T12:32:47.238Z,3.87
2018-06-12T12:35:17.011Z,3.97
2018-06-12T12:37:46.863Z,4.53
2018-06-12T12:40:16.642Z,3.67
2018-06-12T12:42:46.435Z,3.43
2018-06-12T12:45:16.296Z,3.00
2018-06-12T12:47:46.051Z,3.23
2018-06-12T12:50:15.886Z,3.63
2018-06-12T12:52:45.715Z,2.90
2018-06-12T12:55:15.486Z,2.90
2018-06-12T12:57:45.293Z,3.30
2018-06-12T13:00:15.298Z,3.53
2018-06-12T13:02:45.061Z,3.00
2018-06-12T13:05:14.795Z,3.00
2018-06-12T13:07:44.472Z,3.67
2018-06-12T13:10:16.411Z,3.03
2018-06-12T13:12:46.118Z,3.08
2018-06-12T13:15:15.857Z,3.50
2018-06-12T13:17:45.586Z,3.17
2018-06-12T13:20:16.556Z,3.42
2018-06-12T13:22:45.568Z,3.37
2018-06-12T13:25:15.264Z,3.60
2018-06-12T13:27:44.974Z,3.30
2018-06-12T13:30:14.711Z,3.70
2018-06-12T13:32:44.386Z,3.10
2018-06-12T13:35:14.073Z,3.40
2018-06-12T13:37:43.807Z,3.20
2018-06-12T13:40:13.489Z,3.17
2018-06-12T13:42:43.120Z,3.57
2018-06-12T13:45:12.848Z,3.30
2018-06-12T13:47:42.558Z,3.02
2018-06-12T13:50:12.595Z,3.60
2018-06-12T13:52:42.306Z,3.02
2018-06-12T13:55:12.024Z,2.70
2018-06-12T13:57:41.900Z,3.47
2018-06-12T14:00:11.730Z,3.35
2018-06-12T14:02:41.637Z,3.25
2018-06-12T14:05:11.391Z,3.33
2018-06-12T14:07:41.101Z,5.47
2018-06-12T14:10:10.790Z,4.25
2018-06-12T14:12:40.450Z,4.35
2018-06-12T14:15:11.245Z,3.42
2018-06-12T14:17:40.949Z,3.33
2018-06-12T14:20:14.894Z,3.10
2018-06-12T14:22:44.564Z,2.98
2018-06-12T14:25:14.235Z,3.12
2018-06-12T14:27:43.872Z,3.20
2018-06-12T14:30:15.562Z,3.40
2018-06-12T14:32:45.362Z,2.92
2018-06-12T14:35:15.133Z,3.00
2018-06-12T14:37:45.140Z,2.95
2018-06-12T14:40:15.274Z,2.90
2018-06-12T14:42:45.132Z,3.40
2018-06-12T14:45:14.825Z,2.95
2018-06-12T14:47:44.532Z,3.70
2018-06-12T14:50:14.218Z,3.60
2018-06-12T14:52:43.994Z,3.00
2018-06-12T14:55:13.852Z,3.27
2018-06-12T14:57:43.552Z,3.20
2018-06-12T15:00:13.297Z,2.80
2018-06-12T15:02:42.971Z,2.80
2018-06-12T15:05:12.721Z,3.33
2018-06-12T15:07:42.432Z,3.60
2018-06-12T15:10:56.324Z,3.00
2018-06-12T15:13:26.165Z,3.33
2018-06-12T15:15:56.024Z,2.83
2018-06-12T15:18:25.771Z,2.90
2018-06-12T15:20:54.959Z,3.50
2018-06-12T15:23:24.617Z,3.27
2018-06-12T15:25:54.302Z,2.90
2018-06-12T15:28:24.032Z,3.00
2018-06-12T15:30:54.779Z,5.90
2018-06-12T15:33:24.537Z,3.40
2018-06-12T15:35:53.623Z,4.60
2018-06-12T15:38:23.412Z,8.67
2018-06-12T15:40:53.125Z,5.83
2018-06-12T15:43:23.042Z,5.13
2018-06-12T15:45:52.708Z,7.63
2018-06-12T15:48:26.232Z,24.77
2018-06-12T15:50:56.012Z,9.07
2018-06-12T15:53:26.962Z,16.27
2018-06-12T15:55:58.595Z,7.57
2018-06-12T15:58:28.502Z,54.03
2018-06-12T16:00:58.365Z,10.23
2018-06-12T16:03:28.124Z,6.03
2018-06-12T16:05:57.911Z,6.80
2018-06-12T16:08:30.424Z,4.67
2018-06-12T16:11:01.487Z,4.70
2018-06-12T16:13:31.536Z,4.60
2018-06-12T16:16:05.434Z,4.50
2018-06-12T16:18:35.160Z,4.90
2018-06-12T16:21:04.957Z,4.50
2018-06-12T16:23:34.706Z,5.13
2018-06-12T16:26:04.630Z,4.63
2018-06-12T16:28:34.345Z,4.87
2018-06-12T16:31:04.028Z,5.13
2018-06-12T16:33:33.751Z,4.70
2018-06-12T16:36:03.547Z,4.60
2018-06-12T16:38:33.211Z,4.10
2018-06-12T16:41:02.944Z,4.60
2018-06-12T16:43:32.694Z,4.33
2018-06-12T16:46:02.551Z,4.33
2018-06-12T16:48:32.315Z,4.30
2018-06-12T16:51:02.033Z,4.30
2018-06-12T16:53:31.986Z,4.00
2018-06-12T16:56:01.788Z,4.67
2018-06-12T16:58:31.433Z,3.90
2018-06-12T17:01:01.151Z,4.27
2018-06-12T17:03:30.831Z,4.83
2018-06-12T17:06:00.584Z,4.57
2018-06-12T17:08:30.270Z,4.90
2018-06-12T17:10:59.985Z,4.70
2018-06-12T17:13:29.878Z,4.30
2018-06-12T17:15:59.551Z,5.33
2018-06-12T17:18:29.304Z,6.10
2018-06-12T17:20:59.068Z,6.43
2018-06-12T17:23:28.858Z,6.07
2018-06-12T17:25:58.783Z,4.53
2018-06-12T17:28:28.680Z,4.80
2018-06-12T17:30:58.424Z,5.20
2018-06-12T17:33:28.269Z,4.33
2018-06-12T17:35:58.185Z,3.77
2018-06-12T17:38:28.065Z,3.60
2018-06-12T17:40:57.998Z,3.60
2018-06-12T17:43:27.720Z,3.60
2018-06-12T17:45:57.610Z,3.40
2018-06-12T17:48:27.407Z,3.40
2018-06-12T17:50:57.573Z,3.23
2018-06-12T17:53:27.810Z,3.33
2018-06-12T17:55:57.769Z,4.10
2018-06-12T17:58:27.879Z,3.90
2018-06-12T18:00:57.953Z,4.27
2018-06-12T18:03:28.349Z,3.77
2018-06-12T18:05:58.407Z,4.23
2018-06-12T18:08:28.868Z,4.57
2018-06-12T18:10:58.982Z,4.60
2018-06-12T18:13:29.338Z,4.80
2018-06-12T18:16:00.077Z,4.53
2018-06-12T18:18:30.537Z,4.30
2018-06-12T18:21:00.929Z,4.70
2018-06-12T18:23:31.514Z,4.07
2018-06-12T18:26:02.255Z,4.47
2018-06-12T18:28:32.860Z,4.47
2018-06-12T18:31:03.994Z,4.27
2018-06-12T18:33:34.534Z,4.20
2018-06-12T18:36:05.134Z,4.00
2018-06-12T18:38:35.610Z,5.00
2018-06-12T18:41:06.167Z,4.00
2018-06-12T18:43:36.733Z,4.50
2018-06-12T18:46:07.217Z,5.10
2018-06-12T18:48:37.658Z,4.10
2018-06-12T18:51:08.157Z,4.83
2018-06-12T18:53:38.687Z,6.17
2018-06-12T18:56:09.167Z,4.90
2018-06-12T18:58:39.619Z,3.87
2018-06-12T19:01:10.140Z,3.80
2018-06-12T19:03:41.774Z,3.87
2018-06-12T19:06:12.246Z,5.23
2018-06-12T19:08:42.730Z,5.10
2018-06-12T19:11:13.278Z,4.63
2018-06-12T19:13:44.955Z,4.70
2018-06-12T19:16:15.544Z,4.30
2018-06-12T19:18:46.220Z,4.70
2018-06-12T19:21:16.701Z,5.67
2018-06-12T19:23:47.340Z,4.37
2018-06-12T19:26:18.075Z,4.50
2018-06-12T19:28:48.654Z,5.03
2018-06-12T19:31:19.435Z,4.50
2018-06-12T19:33:49.891Z,4.50
2018-06-12T19:36:20.493Z,4.07
2018-06-12T19:38:51.069Z,4.10
2018-06-12T19:41:21.733Z,3.67
2018-06-12T19:43:52.206Z,3.87
2018-06-12T19:46:22.802Z,4.23
2018-06-12T19:48:53.516Z,3.87
2018-06-12T19:51:24.238Z,3.63
2018-06-12T19:53:54.851Z,4.43
2018-06-12T19:56:27.763Z,5.23
2018-06-12T19:58:58.429Z,4.97
2018-06-12T20:01:29.234Z,4.80
2018-06-12T20:03:59.696Z,5.27
2018-06-12T20:06:30.156Z,4.83
2018-06-12T20:09:01.484Z,5.50
2018-06-12T20:11:32.132Z,5.10
2018-06-12T20:14:03.616Z,5.47
2018-06-12T20:16:34.219Z,5.40
2018-06-12T20:19:05.556Z,5.60
2018-06-12T20:21:36.147Z,5.60
2018-06-12T20:24:06.659Z,5.30
2018-06-12T20:26:37.274Z,5.77
2018-06-12T20:29:07.803Z,5.80
2018-06-12T20:31:38.294Z,5.53
2018-06-12T20:34:08.976Z,5.40
2018-06-12T20:36:39.913Z,5.17
2018-06-12T20:39:10.625Z,5.20
2018-06-12T20:41:41.064Z,5.47
2018-06-12T20:44:11.370Z,4.93
2018-06-12T20:46:41.697Z,4.60
2018-06-12T20:49:12.180Z,4.70
2018-06-12T20:51:42.523Z,4.40
2018-06-12T20:54:12.918Z,4.47
2018-06-12T20:56:43.226Z,4.63
2018-06-12T20:59:13.313Z,4.70
2018-06-12T21:01:43.368Z,4.30
2018-06-12T21:04:13.331Z,4.50
2018-06-12T21:06:43.206Z,4.20
2018-06-12T21:09:12.962Z,4.10
2018-06-12T21:11:42.792Z,4.57
2018-06-12T21:14:12.498Z,4.13
2018-06-12T21:16:42.292Z,4.10
2018-06-12T21:19:12.071Z,3.73
2018-06-12T21:21:41.816Z,3.37
2018-06-12T21:24:12.146Z,3.30
2018-06-12T21:26:42.229Z,3.33
2018-06-12T21:29:12.178Z,3.07
2018-06-12T21:31:41.999Z,3.00
2018-06-12T21:34:11.726Z,3.20
2018-06-12T21:36:40.777Z,3.67
2018-06-12T21:39:10.419Z,3.30
2018-06-12T21:41:40.075Z,3.37
2018-06-12T21:44:09.722Z,3.80
2018-06-12T21:46:39.372Z,3.80
2018-06-12T21:49:09.029Z,3.60
2018-06-12T21:51:38.746Z,3.93
2018-06-12T21:54:08.454Z,3.70
2018-06-12T21:56:38.148Z,3.80
2018-06-12T21:59:07.844Z,3.67
2018-06-12T22:01:37.509Z,3.97
2018-06-12T22:04:07.197Z,3.60
2018-06-12T22:06:36.909Z,4.00
2018-06-12T22:09:07.644Z,3.50
2018-06-12T22:11:37.518Z,3.90
2018-06-12T22:14:07.280Z,4.23
2018-06-12T22:16:36.946Z,4.33
2018-06-12T22:19:06.714Z,3.80
2018-06-12T22:21:36.418Z,4.17
2018-06-12T22:24:06.143Z,4.73
2018-06-12T22:26:35.820Z,3.97
2018-06-12T22:29:05.544Z,4.67
2018-06-12T22:31:35.275Z,4.57
2018-06-12T22:34:05.078Z,4.30
2018-06-12T22:36:34.766Z,3.93
2018-06-12T22:39:05.176Z,4.10
2018-06-12T22:41:34.832Z,4.43
2018-06-12T22:44:04.589Z,4.63
2018-06-12T22:46:34.293Z,5.10
2018-06-12T22:49:03.984Z,4.93
2018-06-12T22:51:33.694Z,4.53
2018-06-12T22:54:03.507Z,4.43
2018-06-12T22:56:33.155Z,4.23
2018-06-12T22:59:02.834Z,4.47
2018-06-12T23:01:32.514Z,4.10
2018-06-12T23:04:02.351Z,4.97
2018-06-12T23:06:32.011Z,4.27
2018-06-12T23:09:01.648Z,3.80
2018-06-12T23:11:31.276Z,4.53
2018-06-12T23:14:01.101Z,3.83
2018-06-12T23:16:30.836Z,3.87
2018-06-12T23:19:00.564Z,3.67
2018-06-12T23:21:43.873Z,3.77
2018-06-12T23:24:13.678Z,4.23
2018-06-12T23:26:43.508Z,4.40
2018-06-12T23:29:13.146Z,4.50
2018-06-12T23:31:42.888Z,5.27
2018-06-12T23:34:12.657Z,4.97
2018-06-12T23:36:42.326Z,5.20
2018-06-12T23:39:12.162Z,5.33
2018-06-12T23:41:41.826Z,5.43
2018-06-12T23:44:12.205Z,5.60
2018-06-12T23:46:41.904Z,5.27
2018-06-12T23:49:11.581Z,5.90
2018-06-12T23:51:41.242Z,6.73
2018-06-12T23:54:10.844Z,7.40
2018-06-12T23:56:40.600Z,7.20
2018-06-12T23:59:10.247Z,6.87
